Time;durP1;ratioP1;P1;durP2;ratioP2;P2;SDS_P1;SDS_P2;PMS_P1;PMS_P2;Temp;Humidity;BMP_temperature;BMP_pressure;BME280_temperature;BME280_humidity;BME280_pressure;Samples;Min_cycle;Max_cycle;Signal;HPM_P1;HPM_P2
2021/07/13 00:00:25;;;;;;;5.87;2.80;;;;;;;;;;4364836;32;20113;-72
2021/07/13 00:02:51;;;;;;;5.40;2.60;;;;;;;;;;4365196;32;20179;-72
2021/07/13 00:05:18;;;;;;;3.70;3.00;;;;;;;;;;4352500;32;20144;-72
2021/07/13 00:07:44;;;;;;;4.45;2.70;;;;;;;;;;4364553;32;20110;-72
2021/07/13 00:10:11;;;;;;;4.37;3.03;;;;;;;;;;4364951;32;20113;-72
2021/07/13 00:12:37;;;;;;;4.97;3.70;;;;;;;;;;4364681;32;20090;-72
2021/07/13 00:15:07;;;;;;;6.00;3.97;;;;;;;;;;4378839;32;20117;-72
2021/07/13 00:17:33;;;;;;;6.68;4.50;;;;;;;;;;4378746;32;20136;-73
2021/07/13 00:19:59;;;;;;;8.90;4.65;;;;;;;;;;4364706;32;20114;-72
2021/07/13 00:22:25;;;;;;;9.32;5.93;;;;;;;;;;4378502;32;20152;-72
2021/07/13 00:24:51;;;;;;;6.90;4.75;;;;;;;;;;4364807;32;20311;-72
2021/07/13 00:27:16;;;;;;;11.68;6.57;;;;;;;;;;4364641;32;20102;-72
2021/07/13 00:29:42;;;;;;;13.40;6.78;;;;;;;;;;4378367;32;20497;-72
2021/07/13 00:32:08;;;;;;;17.20;7.35;;;;;;;;;;4378452;32;20108;-72
2021/07/13 00:34:34;;;;;;;11.48;6.90;;;;;;;;;;4378464;32;20136;-72
2021/07/13 00:37:00;;;;;;;11.93;6.62;;;;;;;;;;4378681;32;20117;-71
2021/07/13 00:39:26;;;;;;;11.40;6.53;;;;;;;;;;4378397;32;20129;-72
2021/07/13 00:41:52;;;;;;;11.80;6.35;;;;;;;;;;4378110;32;20121;-72
2021/07/13 00:44:19;;;;;;;15.10;6.12;;;;;;;;;;4378390;32;20218;-72
2021/07/13 00:46:46;;;;;;;13.52;5.90;;;;;;;;;;4364321;32;20106;-72
2021/07/13 00:49:16;;;;;;;8.98;5.72;;;;;;;;;;4378282;32;20543;-72
2021/07/13 00:51:42;;;;;;;10.93;5.50;;;;;;;;;;4364269;32;20149;-72
2021/07/13 00:54:09;;;;;;;8.52;5.40;;;;;;;;;;4364006;32;20102;-72
2021/07/13 00:56:43;;;;;;;12.95;5.85;;;;;;;;;;4364683;32;20140;-72
2021/07/13 00:59:10;;;;;;;8.65;6.03;;;;;;;;;;4378421;32;20233;-73
2021/07/13 01:01:36;;;;;;;13.25;6.43;;;;;;;;;;4378571;32;20117;-72
2021/07/13 01:04:02;;;;;;;11.07;6.40;;;;;;;;;;4364360;32;20196;-72
2021/07/13 01:06:37;;;;;;;14.70;8.38;;;;;;;;;;4378175;32;20432;-72
2021/07/13 01:09:04;;;;;;;16.23;9.80;;;;;;;;;;4352677;32;20098;-72
2021/07/13 01:11:51;;;;;;;22.25;12.35;;;;;;;;;;4352017;32;20125;-72
2021/07/13 01:14:22;;;;;;;24.25;12.90;;;;;;;;;;4364578;32;20433;-72
2021/07/13 01:16:53;;;;;;;26.30;9.02;;;;;;;;;;4364496;32;20113;-72
2021/07/13 01:19:33;;;;;;;23.30;11.32;;;;;;;;;;4351673;32;20504;-72
2021/07/13 01:22:09;;;;;;;23.08;13.25;;;;;;;;;;4364196;32;20112;-72
2021/07/13 01:24:38;;;;;;;29.02;12.10;;;;;;;;;;4364288;32;20121;-72
2021/07/13 01:27:16;;;;;;;16.00;8.18;;;;;;;;;;4377994;32;20101;-72
2021/07/13 01:29:43;;;;;;;19.67;11.95;;;;;;;;;;4378097;32;20093;-71
2021/07/13 01:32:11;;;;;;;14.90;9.65;;;;;;;;;;4351876;32;20206;-71
2021/07/13 01:34:40;;;;;;;18.62;10.98;;;;;;;;;;4364252;32;20098;-71
2021/07/13 01:37:07;;;;;;;24.23;13.00;;;;;;;;;;4364073;32;20116;-71
2021/07/13 01:39:33;;;;;;;16.98;9.13;;;;;;;;;;4351763;32;20121;-72
2021/07/13 01:42:02;;;;;;;29.87;13.55;;;;;;;;;;4364003;32;20093;-72
2021/07/13 01:44:28;;;;;;;25.35;10.52;;;;;;;;;;4377789;32;20640;-72
2021/07/13 01:46:54;;;;;;;33.08;17.05;;;;;;;;;;4351319;32;20129;-72
2021/07/13 01:49:22;;;;;;;32.35;13.98;;;;;;;;;;4377667;32;20135;-72
2021/07/13 01:51:48;;;;;;;26.30;15.15;;;;;;;;;;4351630;32;20584;-72
2021/07/13 01:54:15;;;;;;;34.78;19.12;;;;;;;;;;4351864;32;20189;-72
2021/07/13 01:56:41;;;;;;;35.53;19.52;;;;;;;;;;4351593;32;20614;-72
2021/07/13 01:59:07;;;;;;;41.45;22.70;;;;;;;;;;4351462;32;20125;-72
2021/07/13 02:01:33;;;;;;;55.47;27.23;;;;;;;;;;4364006;32;20225;-72
2021/07/13 02:04:00;;;;;;;52.33;24.70;;;;;;;;;;4377487;32;20124;-72
2021/07/13 02:06:26;;;;;;;46.88;22.40;;;;;;;;;;4363925;32;20077;-72
2021/07/13 02:08:54;;;;;;;33.47;17.75;;;;;;;;;;4377505;32;20100;-72
2021/07/13 02:11:20;;;;;;;28.38;13.50;;;;;;;;;;4351633;32;20116;-72
2021/07/13 02:13:46;;;;;;;23.77;12.02;;;;;;;;;;4351310;32;20468;-72
2021/07/13 02:16:12;;;;;;;24.67;13.40;;;;;;;;;;4377522;32;20132;-72
2021/07/13 02:18:38;;;;;;;22.42;12.07;;;;;;;;;;4363612;32;20122;-72
2021/07/13 02:21:04;;;;;;;19.45;10.90;;;;;;;;;;4377760;32;20209;-77
2021/07/13 02:23:30;;;;;;;17.45;10.68;;;;;;;;;;4377792;32;20105;-78
2021/07/13 02:25:58;;;;;;;20.25;10.07;;;;;;;;;;4377442;32;20124;-77
2021/07/13 02:28:59;;;;;;;15.30;8.50;;;;;;;;;;4363420;32;20460;-77
2021/07/13 02:31:28;;;;;;;12.82;8.32;;;;;;;;;;4363564;32;20148;-77
2021/07/13 02:34:10;;;;;;;14.87;7.93;;;;;;;;;;4351515;32;20214;-77
2021/07/13 02:36:45;;;;;;;20.75;7.72;;;;;;;;;;4363599;32;20114;-77
2021/07/13 02:39:11;;;;;;;18.65;8.43;;;;;;;;;;4351701;32;20120;-77
2021/07/13 02:41:38;;;;;;;13.95;7.37;;;;;;;;;;4363550;32;20116;-78
2021/07/13 02:44:04;;;;;;;15.70;6.87;;;;;;;;;;4363486;32;20113;-72
2021/07/13 02:46:33;;;;;;;17.73;7.10;;;;;;;;;;4351434;32;20533;-76
2021/07/13 02:48:59;;;;;;;10.48;5.70;;;;;;;;;;4350953;32;20106;-73
2021/07/13 02:51:27;;;;;;;10.98;6.25;;;;;;;;;;4377533;32;20117;-76
2021/07/13 02:53:53;;;;;;;10.75;5.30;;;;;;;;;;4351528;32;20101;-73
2021/07/13 02:56:19;;;;;;;13.55;5.70;;;;;;;;;;4377201;32;20181;-73
2021/07/13 02:58:45;;;;;;;10.00;5.95;;;;;;;;;;4350997;32;20230;-75
2021/07/13 03:01:11;;;;;;;8.25;4.57;;;;;;;;;;4363255;32;20133;-72
2021/07/13 03:03:37;;;;;;;10.98;5.93;;;;;;;;;;4363182;32;20123;-72
2021/07/13 03:06:03;;;;;;;13.57;6.50;;;;;;;;;;4363194;32;20535;-72
2021/07/13 03:08:29;;;;;;;15.45;5.37;;;;;;;;;;4350732;32;20125;-72
2021/07/13 03:10:55;;;;;;;11.80;5.70;;;;;;;;;;4363588;32;20468;-76
2021/07/13 03:13:22;;;;;;;9.73;4.85;;;;;;;;;;4337793;32;20093;-80
2021/07/13 03:15:49;;;;;;;11.43;5.55;;;;;;;;;;4360489;32;20193;-80
2021/07/13 03:18:15;;;;;;;8.75;4.87;;;;;;;;;;4361080;32;20130;-80
2021/07/13 03:20:43;;;;;;;10.65;4.95;;;;;;;;;;4362326;32;20186;-80
2021/07/13 03:23:08;;;;;;;12.25;5.28;;;;;;;;;;4351421;32;20113;-78
2021/07/13 03:25:36;;;;;;;9.02;5.03;;;;;;;;;;4363271;32;20205;-81
2021/07/13 03:28:02;;;;;;;8.10;4.47;;;;;;;;;;4366338;32;20113;-81
2021/07/13 03:30:28;;;;;;;5.35;3.55;;;;;;;;;;4364977;32;20164;-81
2021/07/13 03:32:54;;;;;;;5.93;4.10;;;;;;;;;;4350663;32;20113;-76
2021/07/13 03:35:21;;;;;;;4.05;3.00;;;;;;;;;;4350732;32;20122;-75
2021/07/13 03:37:48;;;;;;;7.22;2.97;;;;;;;;;;4376897;32;20125;-73
2021/07/13 03:40:14;;;;;;;4.00;2.83;;;;;;;;;;4363079;32;20085;-74
2021/07/13 03:42:40;;;;;;;3.85;2.70;;;;;;;;;;4347776;32;20195;-78
2021/07/13 03:45:06;;;;;;;3.72;2.58;;;;;;;;;;4335665;32;20129;-81
2021/07/13 03:47:32;;;;;;;7.35;3.10;;;;;;;;;;4361829;32;20091;-79
2021/07/13 03:49:58;;;;;;;4.18;2.40;;;;;;;;;;4347801;32;20189;-80
2021/07/13 03:52:24;;;;;;;4.57;3.08;;;;;;;;;;4361706;32;20114;-80
2021/07/13 03:54:50;;;;;;;11.52;3.37;;;;;;;;;;4361379;32;20132;-79
2021/07/13 03:57:16;;;;;;;8.57;3.45;;;;;;;;;;4361649;32;20623;-81
2021/07/13 03:59:42;;;;;;;7.68;3.20;;;;;;;;;;4347837;32;20204;-79
2021/07/13 04:02:08;;;;;;;6.45;2.83;;;;;;;;;;4347895;32;20132;-71
2021/07/13 04:04:34;;;;;;;9.48;2.70;;;;;;;;;;4347642;32;20517;-71
2021/07/13 04:07:00;;;;;;;8.80;4.85;;;;;;;;;;4361513;32;20126;-71
2021/07/13 04:09:26;;;;;;;5.55;3.03;;;;;;;;;;4361903;32;20148;-71
2021/07/13 04:11:52;;;;;;;8.50;3.92;;;;;;;;;;4361421;32;20428;-71
2021/07/13 04:14:18;;;;;;;10.50;3.95;;;;;;;;;;4361426;32;20129;-71
2021/07/13 04:16:44;;;;;;;5.70;3.22;;;;;;;;;;4361608;32;20208;-71
2021/07/13 04:19:09;;;;;;;6.18;2.75;;;;;;;;;;4361621;32;20106;-71
2021/07/13 04:21:35;;;;;;;5.10;2.62;;;;;;;;;;4348023;32;20125;-71
2021/07/13 04:24:01;;;;;;;8.10;2.22;;;;;;;;;;4361312;32;20116;-71
2021/07/13 04:26:27;;;;;;;5.50;2.30;;;;;;;;;;4361393;32;20118;-70
2021/07/13 04:28:53;;;;;;;7.55;2.60;;;;;;;;;;4362876;32;20383;-70
2021/07/13 04:31:19;;;;;;;6.50;2.53;;;;;;;;;;4363653;32;20129;-70
2021/07/13 04:33:45;;;;;;;9.27;2.92;;;;;;;;;;4363413;32;20137;-70
2021/07/13 04:36:11;;;;;;;2.85;2.30;;;;;;;;;;4363471;32;20145;-70
2021/07/13 04:38:37;;;;;;;4.32;2.28;;;;;;;;;;4363494;32;20112;-69
2021/07/13 04:41:02;;;;;;;5.37;2.50;;;;;;;;;;4363462;32;20160;-69
2021/07/13 04:43:28;;;;;;;11.12;2.87;;;;;;;;;;4374706;32;20114;-69
2021/07/13 04:45:54;;;;;;;6.40;2.50;;;;;;;;;;4364394;32;20473;-69
2021/07/13 04:48:20;;;;;;;3.28;2.30;;;;;;;;;;4378239;32;20214;-66
2021/07/13 04:50:46;;;;;;;4.30;2.97;;;;;;;;;;4364631;32;20616;-67
2021/07/13 04:53:12;;;;;;;4.82;2.45;;;;;;;;;;4364465;32;20106;-66
2021/07/13 04:55:38;;;;;;;4.65;1.92;;;;;;;;;;4364516;32;20530;-67
2021/07/13 04:58:04;;;;;;;4.20;2.78;;;;;;;;;;4378067;32;20530;-66
2021/07/13 05:00:30;;;;;;;3.17;2.22;;;;;;;;;;4351943;32;20506;-66
2021/07/13 05:02:56;;;;;;;6.03;2.33;;;;;;;;;;4378320;32;20445;-66
2021/07/13 05:05:22;;;;;;;2.70;2.25;;;;;;;;;;4364612;32;20157;-66
2021/07/13 05:07:48;;;;;;;4.50;2.85;;;;;;;;;;4364451;32;20121;-66
2021/07/13 05:10:15;;;;;;;4.15;2.40;;;;;;;;;;4364477;32;20203;-66
2021/07/13 05:12:41;;;;;;;7.10;2.67;;;;;;;;;;4378113;32;20132;-66
2021/07/13 05:15:08;;;;;;;3.37;2.47;;;;;;;;;;4352150;32;20114;-66
2021/07/13 05:17:36;;;;;;;7.87;3.03;;;;;;;;;;4378133;32;20117;-66
2021/07/13 05:20:06;;;;;;;6.68;2.50;;;;;;;;;;4352101;32;20508;-66
2021/07/13 05:22:33;;;;;;;6.60;2.60;;;;;;;;;;4364075;32;20113;-66
2021/07/13 05:24:59;;;;;;;7.07;3.47;;;;;;;;;;4352034;32;20109;-66
2021/07/13 05:27:24;;;;;;;8.25;4.15;;;;;;;;;;4364188;32;20104;-66
2021/07/13 05:29:50;;;;;;;5.20;2.85;;;;;;;;;;4364064;32;20208;-66
2021/07/13 05:32:16;;;;;;;6.37;2.72;;;;;;;;;;4363994;32;20101;-66
2021/07/13 05:34:43;;;;;;;3.28;2.22;;;;;;;;;;4377873;32;20141;-66
2021/07/13 05:37:10;;;;;;;4.25;2.45;;;;;;;;;;4364107;32;20113;-66
2021/07/13 05:39:37;;;;;;;5.30;2.75;;;;;;;;;;4377782;32;20096;-67
2021/07/13 05:42:03;;;;;;;2.47;2.03;;;;;;;;;;4364177;32;20209;-66
2021/07/13 05:44:29;;;;;;;6.35;2.40;;;;;;;;;;4348225;32;20486;-66
2021/07/13 05:46:55;;;;;;;5.28;2.40;;;;;;;;;;4363820;32;20106;-66
2021/07/13 05:49:21;;;;;;;3.03;2.45;;;;;;;;;;4363965;32;20117;-66
2021/07/13 05:51:47;;;;;;;6.97;2.53;;;;;;;;;;4377708;32;20524;-66
2021/07/13 05:54:13;;;;;;;6.62;3.45;;;;;;;;;;4363771;32;20464;-66
2021/07/13 05:56:39;;;;;;;4.47;1.98;;;;;;;;;;4377697;32;20137;-65
2021/07/13 05:59:05;;;;;;;2.40;1.87;;;;;;;;;;4363777;32;20194;-66
2021/07/13 06:01:31;;;;;;;5.45;2.50;;;;;;;;;;4377664;32;20130;-67
2021/07/13 06:03:57;;;;;;;6.05;2.72;;;;;;;;;;4363818;32;20202;-67
2021/07/13 06:06:23;;;;;;;2.15;1.90;;;;;;;;;;4377635;32;20551;-66
2021/07/13 06:08:49;;;;;;;2.72;2.37;;;;;;;;;;4377582;32;20451;-67
2021/07/13 06:11:15;;;;;;;5.40;2.50;;;;;;;;;;4351599;32;20133;-67
2021/07/13 06:13:43;;;;;;;6.35;3.05;;;;;;;;;;4377791;32;20537;-67
2021/07/13 06:16:09;;;;;;;5.28;2.37;;;;;;;;;;4363796;32;20112;-66
2021/07/13 06:18:35;;;;;;;4.20;2.40;;;;;;;;;;4363743;32;20542;-66
2021/07/13 06:21:00;;;;;;;3.53;2.92;;;;;;;;;;4351323;32;20132;-66
2021/07/13 06:23:26;;;;;;;4.78;2.87;;;;;;;;;;4377215;32;20136;-66
2021/07/13 06:25:52;;;;;;;2.75;1.60;;;;;;;;;;4377238;32;20217;-66
2021/07/13 06:28:18;;;;;;;3.75;2.30;;;;;;;;;;4377389;32;20105;-66
2021/07/13 06:30:44;;;;;;;2.12;1.70;;;;;;;;;;4363372;32;20106;-66
2021/07/13 06:33:10;;;;;;;2.85;2.37;;;;;;;;;;4363316;32;20110;-66
2021/07/13 06:35:36;;;;;;;6.07;1.77;;;;;;;;;;4377432;32;20291;-66
2021/07/13 06:38:03;;;;;;;7.40;2.62;;;;;;;;;;4377247;32;20218;-67
2021/07/13 06:40:29;;;;;;;5.68;2.70;;;;;;;;;;4377078;32;20096;-66
2021/07/13 06:42:55;;;;;;;8.63;2.42;;;;;;;;;;4377080;32;20106;-66
2021/07/13 06:45:21;;;;;;;5.18;2.50;;;;;;;;;;4348287;32;20121;-66
2021/07/13 06:47:48;;;;;;;3.83;2.35;;;;;;;;;;4362138;32;20180;-66
2021/07/13 06:50:14;;;;;;;2.55;2.35;;;;;;;;;;4347897;32;20469;-66
2021/07/13 06:52:40;;;;;;;2.60;2.05;;;;;;;;;;4362026;32;20097;-66
2021/07/13 06:55:07;;;;;;;2.67;2.03;;;;;;;;;;4362025;32;20124;-67
2021/07/13 06:57:33;;;;;;;2.92;2.50;;;;;;;;;;4361977;32;20114;-66
2021/07/13 06:59:59;;;;;;;3.30;2.33;;;;;;;;;;4335872;32;20118;-66
2021/07/13 07:02:26;;;;;;;3.08;2.08;;;;;;;;;;4362473;32;20189;-66
2021/07/13 07:04:53;;;;;;;3.92;2.15;;;;;;;;;;4376954;32;20094;-66
2021/07/13 07:07:19;;;;;;;5.47;2.30;;;;;;;;;;4376765;32;20172;-66
2021/07/13 07:09:44;;;;;;;2.67;2.15;;;;;;;;;;4376745;32;20519;-67
2021/07/13 07:12:10;;;;;;;2.95;1.77;;;;;;;;;;4376928;32;20170;-67
2021/07/13 07:14:36;;;;;;;1.95;1.83;;;;;;;;;;4377047;32;20225;-67
2021/07/13 07:17:02;;;;;;;5.00;3.00;;;;;;;;;;4376760;32;20193;-67
2021/07/13 07:19:28;;;;;;;3.78;2.60;;;;;;;;;;4371907;32;20198;-67
2021/07/13 07:21:54;;;;;;;5.47;2.42;;;;;;;;;;4361808;32;20130;-67
2021/07/13 07:24:20;;;;;;;8.38;2.87;;;;;;;;;;4362064;32;20193;-67
2021/07/13 07:26:46;;;;;;;1.70;1.60;;;;;;;;;;4361917;32;20102;-67
2021/07/13 07:29:12;;;;;;;1.85;1.65;;;;;;;;;;4360339;32;20555;-67
2021/07/13 07:31:38;;;;;;;4.07;3.40;;;;;;;;;;4361912;32;20114;-67
2021/07/13 07:34:03;;;;;;;2.00;1.77;;;;;;;;;;4361741;32;20148;-67
2021/07/13 07:36:29;;;;;;;1.77;1.67;;;;;;;;;;4361739;32;20310;-67
2021/07/13 07:38:55;;;;;;;3.47;2.72;;;;;;;;;;4361739;32;20117;-67
2021/07/13 07:41:21;;;;;;;5.95;2.95;;;;;;;;;;4361747;32;20527;-67
2021/07/13 07:43:48;;;;;;;4.25;3.25;;;;;;;;;;4361498;32;20249;-67
2021/07/13 07:46:14;;;;;;;5.25;2.97;;;;;;;;;;4364395;32;20553;-67
2021/07/13 07:48:40;;;;;;;3.75;3.22;;;;;;;;;;4376512;32;20129;-67
2021/07/13 07:51:06;;;;;;;3.20;2.70;;;;;;;;;;4362701;32;20214;-67
2021/07/13 07:53:32;;;;;;;6.15;3.80;;;;;;;;;;4376746;32;20424;-68
2021/07/13 07:55:58;;;;;;;2.72;2.50;;;;;;;;;;4362896;32;20528;-68
2021/07/13 07:58:23;;;;;;;4.50;3.15;;;;;;;;;;4363006;32;20118;-68
2021/07/13 08:00:49;;;;;;;4.87;3.15;;;;;;;;;;4376449;32;20121;-67
2021/07/13 08:03:15;;;;;;;9.13;4.40;;;;;;;;;;4364473;32;20113;-67
2021/07/13 08:05:42;;;;;;;4.57;3.45;;;;;;;;;;4378916;32;20316;-68
2021/07/13 08:08:09;;;;;;;4.22;3.47;;;;;;;;;;4378876;32;20175;-68
2021/07/13 08:10:35;;;;;;;5.70;4.50;;;;;;;;;;4378689;32;20250;-67
2021/07/13 08:13:01;;;;;;;5.20;4.00;;;;;;;;;;4365037;32;20116;-68
2021/07/13 08:15:27;;;;;;;6.82;4.62;;;;;;;;;;4378514;32;20139;-67
2021/07/13 08:17:53;;;;;;;6.03;3.55;;;;;;;;;;4364691;32;20122;-67
2021/07/13 08:20:19;;;;;;;5.78;3.72;;;;;;;;;;4378508;32;20529;-67
2021/07/13 08:22:47;;;;;;;3.62;3.00;;;;;;;;;;4352495;32;20121;-67
2021/07/13 08:25:17;;;;;;;4.50;3.42;;;;;;;;;;4378581;32;20101;-67
2021/07/13 08:27:44;;;;;;;5.18;3.60;;;;;;;;;;4364762;32;20117;-67
2021/07/13 08:30:10;;;;;;;22.98;5.05;;;;;;;;;;4378443;32;20113;-67
2021/07/13 08:32:36;;;;;;;7.35;3.33;;;;;;;;;;4378552;32;20105;-67
2021/07/13 08:35:02;;;;;;;14.85;5.32;;;;;;;;;;4378445;32;20457;-68
2021/07/13 08:37:32;;;;;;;5.18;3.67;;;;;;;;;;4378238;32;20102;-67
2021/07/13 08:39:59;;;;;;;4.32;2.92;;;;;;;;;;4365023;32;20116;-68
2021/07/13 08:42:25;;;;;;;9.00;2.97;;;;;;;;;;4378188;32;20133;-68
2021/07/13 08:44:51;;;;;;;5.53;4.07;;;;;;;;;;4378351;32;20543;-68
2021/07/13 08:47:17;;;;;;;6.45;4.30;;;;;;;;;;4364595;32;20125;-68
2021/07/13 08:49:44;;;;;;;11.73;5.10;;;;;;;;;;4364273;32;20137;-67
2021/07/13 08:52:10;;;;;;;8.35;3.58;;;;;;;;;;4364471;32;20194;-67
2021/07/13 08:54:36;;;;;;;5.43;3.37;;;;;;;;;;4378124;32;20499;-68
2021/07/13 08:57:02;;;;;;;8.95;3.53;;;;;;;;;;4364313;32;20109;-67
2021/07/13 08:59:27;;;;;;;2.10;1.90;;;;;;;;;;4378225;32;20865;-68
2021/07/13 09:01:54;;;;;;;6.78;4.28;;;;;;;;;;4378076;32;20093;-68
2021/07/13 09:04:19;;;;;;;4.40;3.35;;;;;;;;;;4351827;32;20132;-67
2021/07/13 09:06:53;;;;;;;6.40;4.40;;;;;;;;;;4364206;32;20214;-67
2021/07/13 09:09:30;;;;;;;6.47;3.90;;;;;;;;;;4364226;32;20283;-67
2021/07/13 09:12:15;;;;;;;3.47;2.90;;;;;;;;;;4378058;32;20423;-68
2021/07/13 09:14:56;;;;;;;6.05;4.53;;;;;;;;;;4377801;32;20185;-68
2021/07/13 09:17:35;;;;;;;9.57;5.03;;;;;;;;;;4378086;32;20480;-68
2021/07/13 09:20:05;;;;;;;8.50;4.03;;;;;;;;;;4378191;32;20499;-68
2021/07/13 09:22:31;;;;;;;6.90;4.82;;;;;;;;;;4377904;32;20230;-68
2021/07/13 09:24:57;;;;;;;9.18;4.90;;;;;;;;;;4364178;32;20522;-68
2021/07/13 09:27:23;;;;;;;5.70;4.82;;;;;;;;;;4363938;32;20580;-67
2021/07/13 09:29:51;;;;;;;5.20;3.92;;;;;;;;;;4364010;32;20113;-67
2021/07/13 09:32:22;;;;;;;4.80;4.05;;;;;;;;;;4377776;32;20112;-67
2021/07/13 09:34:49;;;;;;;5.60;4.60;;;;;;;;;;4378115;32;20428;-67
2021/07/13 09:37:29;;;;;;;7.87;5.28;;;;;;;;;;4377726;32;20112;-67
2021/07/13 09:39:59;;;;;;;5.80;4.28;;;;;;;;;;4364221;32;20114;-67
2021/07/13 09:42:25;;;;;;;6.93;4.03;;;;;;;;;;4377833;32;20113;-67
2021/07/13 09:44:51;;;;;;;10.57;3.62;;;;;;;;;;4363720;32;20204;-67
2021/07/13 09:47:28;;;;;;;7.87;5.40;;;;;;;;;;4363645;32;20105;-66
2021/07/13 09:49:54;;;;;;;8.70;3.47;;;;;;;;;;4377772;32;20101;-67
2021/07/13 09:52:23;;;;;;;5.00;4.50;;;;;;;;;;4363614;32;20211;-67
2021/07/13 09:54:49;;;;;;;7.85;5.07;;;;;;;;;;4377816;32;20459;-67
2021/07/13 09:57:20;;;;;;;7.40;5.40;;;;;;;;;;4377582;32;20140;-67
2021/07/13 09:59:47;;;;;;;8.43;5.22;;;;;;;;;;4363761;32;20620;-67
2021/07/13 10:02:16;;;;;;;5.70;4.78;;;;;;;;;;4363669;32;20823;-67
2021/07/13 10:04:42;;;;;;;14.40;4.32;;;;;;;;;;4377697;32;20097;-67
2021/07/13 10:07:18;;;;;;;5.37;4.55;;;;;;;;;;4363925;32;20201;-67
2021/07/13 10:09:49;;;;;;;9.55;4.95;;;;;;;;;;4377487;32;20114;-67
2021/07/13 10:12:16;;;;;;;5.20;4.70;;;;;;;;;;4377572;32;20122;-67
2021/07/13 10:14:44;;;;;;;4.40;4.00;;;;;;;;;;4377701;32;20140;-67
2021/07/13 10:17:10;;;;;;;8.32;5.28;;;;;;;;;;4377285;32;20098;-67
2021/07/13 10:19:49;;;;;;;5.80;3.70;;;;;;;;;;4377253;32;20136;-67
2021/07/13 10:22:16;;;;;;;6.25;4.95;;;;;;;;;;4352451;32;20113;-67
2021/07/13 10:24:46;;;;;;;7.50;4.28;;;;;;;;;;4375560;32;20109;-67
2021/07/13 10:27:23;;;;;;;4.93;4.40;;;;;;;;;;4351217;32;20168;-67
2021/07/13 10:29:49;;;;;;;7.12;5.07;;;;;;;;;;4363531;32;20082;-67
2021/07/13 10:32:18;;;;;;;14.93;5.62;;;;;;;;;;4363454;32;20189;-67
2021/07/13 10:34:51;;;;;;;6.37;5.55;;;;;;;;;;4363447;32;20113;-67
2021/07/13 10:37:32;;;;;;;11.90;5.32;;;;;;;;;;4377430;32;20178;-67
2021/07/13 10:40:08;;;;;;;8.35;5.43;;;;;;;;;;4363518;32;20251;-66
2021/07/13 10:42:45;;;;;;;5.00;3.20;;;;;;;;;;4363528;32;20474;-67
2021/07/13 10:45:33;;;;;;;6.70;3.72;;;;;;;;;;4363429;32;20121;-67
2021/07/13 10:48:09;;;;;;;7.68;4.32;;;;;;;;;;4377276;32;20097;-67
2021/07/13 10:50:38;;;;;;;6.37;5.10;;;;;;;;;;4377251;32;20128;-67
2021/07/13 10:53:16;;;;;;;10.63;5.37;;;;;;;;;;4363631;32;20556;-67
2021/07/13 10:55:46;;;;;;;6.30;4.00;;;;;;;;;;4377154;32;20444;-67
2021/07/13 10:58:15;;;;;;;7.78;3.45;;;;;;;;;;4351234;32;20104;-67
2021/07/13 11:00:48;;;;;;;55.65;8.23;;;;;;;;;;4377124;32;20216;-67
2021/07/13 11:03:29;;;;;;;20.10;6.35;;;;;;;;;;4377072;32;20121;-67
2021/07/13 11:05:58;;;;;;;19.00;5.37;;;;;;;;;;4377028;32;20137;-67
2021/07/13 11:08:49;;;;;;;14.32;5.65;;;;;;;;;;4376885;32;20463;-67
2021/07/13 11:11:18;;;;;;;24.70;6.05;;;;;;;;;;4377503;32;20105;-67
2021/07/13 11:13:45;;;;;;;23.30;6.05;;;;;;;;;;4376998;32;20129;-67
2021/07/13 11:16:11;;;;;;;13.65;4.93;;;;;;;;;;4376881;32;20093;-67
2021/07/13 11:18:38;;;;;;;11.12;4.57;;;;;;;;;;4362959;32;20504;-67
2021/07/13 11:21:17;;;;;;;15.32;4.65;;;;;;;;;;4363049;32;20089;-67
2021/07/13 11:23:44;;;;;;;9.82;3.55;;;;;;;;;;4376771;32;20183;-67
2021/07/13 11:26:11;;;;;;;16.52;4.70;;;;;;;;;;4362909;32;20093;-68
2021/07/13 11:28:37;;;;;;;10.27;5.80;;;;;;;;;;4362895;32;20206;-67
2021/07/13 11:31:04;;;;;;;12.23;4.28;;;;;;;;;;4362815;32;20572;-67
2021/07/13 11:33:30;;;;;;;12.07;4.57;;;;;;;;;;4376482;32;20111;-67
2021/07/13 11:35:59;;;;;;;15.80;4.62;;;;;;;;;;4350134;32;20686;-67
2021/07/13 11:38:29;;;;;;;10.07;3.85;;;;;;;;;;4365253;32;20119;-67
2021/07/13 11:41:15;;;;;;;15.75;4.22;;;;;;;;;;4365396;32;20105;-67
2021/07/13 11:43:41;;;;;;;11.07;5.05;;;;;;;;;;4378857;32;20437;-67
2021/07/13 11:46:15;;;;;;;7.60;4.00;;;;;;;;;;4365009;32;20105;-68
2021/07/13 11:48:41;;;;;;;6.20;3.72;;;;;;;;;;4364976;32;20137;-67
2021/07/13 11:51:10;;;;;;;8.55;4.30;;;;;;;;;;4378984;32;20209;-67
2021/07/13 11:53:35;;;;;;;8.93;4.62;;;;;;;;;;4378770;32;20183;-67
2021/07/13 11:56:02;;;;;;;5.70;3.15;;;;;;;;;;4378672;32;20554;-67
2021/07/13 11:58:29;;;;;;;6.68;3.97;;;;;;;;;;4378913;32;20106;-67
2021/07/13 12:01:14;;;;;;;6.57;3.58;;;;;;;;;;4364980;32;20185;-68
2021/07/13 12:03:40;;;;;;;4.87;4.40;;;;;;;;;;4378926;32;20102;-66
2021/07/13 12:06:12;;;;;;;5.72;3.50;;;;;;;;;;4378848;32;20511;-69
2021/07/13 12:08:38;;;;;;;7.60;4.07;;;;;;;;;;4378757;32;20093;-69
2021/07/13 12:11:05;;;;;;;5.72;4.15;;;;;;;;;;4378812;32;20112;-70
2021/07/13 12:13:31;;;;;;;7.82;4.40;;;;;;;;;;4364692;32;20101;-70
2021/07/13 12:16:36;;;;;;;6.28;4.68;;;;;;;;;;4364968;32;20156;-70
2021/07/13 12:19:08;;;;;;;8.68;4.15;;;;;;;;;;4364323;32;20551;-70
2021/07/13 12:21:42;;;;;;;6.07;4.90;;;;;;;;;;4378486;32;20124;-70
2021/07/13 12:24:13;;;;;;;7.20;4.03;;;;;;;;;;4378490;32;20117;-70
2021/07/13 12:26:40;;;;;;;9.10;4.35;;;;;;;;;;4365166;32;20133;-70
2021/07/13 12:29:08;;;;;;;6.57;4.12;;;;;;;;;;4352409;32;20086;-70
2021/07/13 12:31:44;;;;;;;3.67;3.37;;;;;;;;;;4378573;32;20444;-70
2021/07/13 12:34:22;;;;;;;4.32;3.05;;;;;;;;;;4378628;32;20122;-70
2021/07/13 12:36:49;;;;;;;4.37;3.40;;;;;;;;;;4378374;32;20098;-70
2021/07/13 12:39:22;;;;;;;4.78;3.78;;;;;;;;;;4378383;32;20211;-70
2021/07/13 12:42:09;;;;;;;5.62;3.58;;;;;;;;;;4378350;32;20190;-70
2021/07/13 12:44:37;;;;;;;10.88;4.20;;;;;;;;;;4378468;32;20098;-70
2021/07/13 12:47:20;;;;;;;5.82;4.22;;;;;;;;;;4364323;32;20215;-67
2021/07/13 12:50:06;;;;;;;9.30;4.50;;;;;;;;;;4377600;32;20125;-67
2021/07/13 12:52:32;;;;;;;6.15;4.37;;;;;;;;;;4378567;32;20124;-68
2021/07/13 12:55:19;;;;;;;6.95;4.50;;;;;;;;;;4378511;32;20127;-67
2021/07/13 12:57:49;;;;;;;8.18;3.70;;;;;;;;;;4353792;32;20122;-67
2021/07/13 13:00:19;;;;;;;6.82;4.32;;;;;;;;;;4352141;32;20141;-67
2021/07/13 13:02:47;;;;;;;4.68;3.90;;;;;;;;;;4378126;32;20113;-68
2021/07/13 13:05:28;;;;;;;10.57;4.47;;;;;;;;;;4364661;32;20117;-68
2021/07/13 13:08:22;;;;;;;7.03;4.50;;;;;;;;;;4378269;32;20183;-67
2021/07/13 13:10:52;;;;;;;8.82;4.55;;;;;;;;;;4378415;32;20104;-68
2021/07/13 13:13:28;;;;;;;5.75;4.18;;;;;;;;;;4378415;32;20090;-67
2021/07/13 13:15:57;;;;;;;5.72;4.75;;;;;;;;;;4378116;32;20211;-67
2021/07/13 13:18:23;;;;;;;7.68;4.53;;;;;;;;;;4352300;32;20605;-67
2021/07/13 13:20:49;;;;;;;7.95;5.57;;;;;;;;;;4377996;32;20113;-67
2021/07/13 13:23:16;;;;;;;6.37;4.25;;;;;;;;;;4378192;32;20528;-67
2021/07/13 13:25:42;;;;;;;6.93;4.68;;;;;;;;;;4364258;32;20125;-67
2021/07/13 13:28:09;;;;;;;6.05;4.47;;;;;;;;;;4351882;32;20617;-67
2021/07/13 13:30:35;;;;;;;6.78;4.80;;;;;;;;;;4364321;32;20102;-67
2021/07/13 13:33:01;;;;;;;5.80;4.43;;;;;;;;;;4378099;32;20112;-67
2021/07/13 13:40:30;;;;;;;6.95;4.87;;;;;;;;;;4377855;32;20568;-67
2021/07/13 13:42:56;;;;;;;10.63;4.37;;;;;;;;;;4377989;32;20105;-67
2021/07/13 13:45:23;;;;;;;5.68;4.68;;;;;;;;;;4363965;32;20131;-68
2021/07/13 13:47:48;;;;;;;7.10;5.43;;;;;;;;;;4377625;32;20098;-67
2021/07/13 13:50:14;;;;;;;7.10;3.85;;;;;;;;;;4378135;32;20468;-67
2021/07/13 13:52:40;;;;;;;6.35;4.90;;;;;;;;;;4377876;32;20105;-67
2021/07/13 13:55:07;;;;;;;11.82;5.65;;;;;;;;;;4378060;32;20129;-67
2021/07/13 13:57:33;;;;;;;6.80;4.65;;;;;;;;;;4377634;32;20117;-66
2021/07/13 13:59:59;;;;;;;5.25;3.87;;;;;;;;;;4377569;32;20551;-66
2021/07/13 14:02:25;;;;;;;7.03;4.03;;;;;;;;;;4363930;32;20093;-66
2021/07/13 14:04:51;;;;;;;4.97;3.53;;;;;;;;;;4351445;32;20148;-66
2021/07/13 14:07:17;;;;;;;6.93;4.50;;;;;;;;;;4377782;32;20120;-65
2021/07/13 14:09:43;;;;;;;5.80;4.60;;;;;;;;;;4377626;32;20196;-66
2021/07/13 14:12:09;;;;;;;7.47;5.22;;;;;;;;;;4377418;32;20211;-66
2021/07/13 14:14:37;;;;;;;6.90;4.68;;;;;;;;;;4377483;32;20110;-66
2021/07/13 14:17:03;;;;;;;6.05;3.58;;;;;;;;;;4377583;32;20110;-66
2021/07/13 14:19:30;;;;;;;6.97;4.37;;;;;;;;;;4377606;32;20125;-66
2021/07/13 14:21:56;;;;;;;10.98;5.40;;;;;;;;;;4363715;32;20532;-65
2021/07/13 14:24:22;;;;;;;8.70;4.85;;;;;;;;;;4377734;32;20125;-65
2021/07/13 14:26:47;;;;;;;9.07;4.65;;;;;;;;;;4377346;32;20118;-65
2021/07/13 14:29:13;;;;;;;7.43;4.85;;;;;;;;;;4363549;32;20539;-65
2021/07/13 14:31:39;;;;;;;6.35;5.00;;;;;;;;;;4377624;32;20110;-65
2021/07/13 14:34:05;;;;;;;7.00;5.00;;;;;;;;;;4377488;32;20100;-65
2021/07/13 14:36:31;;;;;;;5.18;4.20;;;;;;;;;;4377399;32;20136;-65
2021/07/13 14:38:57;;;;;;;7.93;5.20;;;;;;;;;;4378072;32;20518;-65
2021/07/13 14:41:23;;;;;;;7.78;5.40;;;;;;;;;;4378419;32;20129;-65
2021/07/13 14:43:49;;;;;;;6.40;5.37;;;;;;;;;;4378377;32;20117;-66
2021/07/13 14:46:15;;;;;;;8.52;5.10;;;;;;;;;;4364061;32;20113;-65
2021/07/13 14:48:42;;;;;;;5.72;5.12;;;;;;;;;;4364397;32;20132;-65